Forside
METAR-TAF:

METAR-TAF

Lufthavne :

Poprad, Slovakiet

Breddekreds: 49-04N, længdekreds: 020-15E, højde: 694 m

Aktuelle vejr

Denne rapport blev lavet for 51 minutter siden, kl. 00:30 UTC
Vind 5 kt fra vestsydvest
Temperatur 7°C
Fugtighed 93%
Tryk 1027 hPa
Sigt 10 km eller mere
Nogle få skyer i en højde af 6000 ft

METAR: LZTT 130030Z 25005KT 9999 FEW060 07/06 Q1027

Tid: 03:21 (01:21 UTC)

Vejrudsigter

Denne rapport blev lavet for 2 timer og 6 minutter siden, kl. 23:15 UTC
Foreløbig gælder fra 13 på 00 UTC til 14 på 00 UTC
Vind 4 kt fra vest
Sigt 10 km eller mere
Nogle få skyer i en højde af 5500 ft
Midlertidig
fra 13 på 02 UTC til 13 på 07 UTC
Sigt: 5000 m
Nogle få skyer i en højde af 700 ft
Brudte skyer i en højde af 1200 ft
Let tåge
ændring
fra 13 på 08 UTC til 13 på 10 UTC
Vind 8 kt fra vest

TAF: LZTT 122315Z 1300/1400 28004KT 9999 FEW055 TEMPO 1302/1307 5000 MIFG FEW007 BKN012 BECMG 1308/1310 26008KT

Vejrobservationer og prognoser fra mere end 4000 lufthavne (METAR og TAF).

De gule og røde prikker repræsenterer de meteorologiske stationer.

Flyt musen over at se navnet på stationen.

Så klik over at se vejr observationer og prognoser.

At skifte det kort: Klik på de grønne knapper med et sort kors for at zoome ind; på den grønne knap med en bindestreg for at zoome ud; eller på de grønne pile for tilstødende kort.


METAR-TAF: